createdAt,value
2018-03-08T00:01:39.260Z,50.31
2018-03-08T00:04:07.098Z,50.24
2018-03-08T00:06:35.105Z,50.84
2018-03-08T00:09:03.085Z,50.88
2018-03-08T00:11:30.984Z,51.40
2018-03-08T00:13:58.905Z,51.90
2018-03-08T00:16:26.866Z,51.63
2018-03-08T00:18:54.827Z,51.29
2018-03-08T00:21:22.783Z,54.20
2018-03-08T00:23:50.704Z,55.80
2018-03-08T00:26:18.648Z,55.82
2018-03-08T00:28:46.632Z,55.46
2018-03-08T00:31:14.581Z,53.31
2018-03-08T00:33:42.533Z,51.47
2018-03-08T00:36:10.526Z,51.25
2018-03-08T00:38:38.489Z,52.69
2018-03-08T00:41:06.497Z,52.60
2018-03-08T00:43:34.338Z,51.67
2018-03-08T00:46:02.277Z,50.67
2018-03-08T00:48:30.144Z,50.96
2018-03-08T00:50:58.148Z,52.06
2018-03-08T00:53:26.042Z,52.19
2018-03-08T00:55:53.965Z,51.08
2018-03-08T00:58:21.924Z,50.91
2018-03-08T01:00:49.997Z,50.71
2018-03-08T01:03:18.468Z,50.75
2018-03-08T01:05:46.424Z,51.98
2018-03-08T01:08:14.413Z,51.40
2018-03-08T01:10:42.390Z,51.42
2018-03-08T01:13:10.310Z,51.53
2018-03-08T01:15:38.257Z,51.54
2018-03-08T01:18:06.265Z,51.80
2018-03-08T01:20:34.212Z,51.60
2018-03-08T01:23:02.173Z,51.26
2018-03-08T01:25:30.096Z,51.03
2018-03-08T01:27:58.045Z,51.15
2018-03-08T01:30:25.985Z,51.06
2018-03-08T01:32:53.937Z,51.54
2018-03-08T01:35:21.942Z,51.87
2018-03-08T01:37:49.825Z,52.26
2018-03-08T01:40:17.787Z,52.12
2018-03-08T01:42:45.734Z,52.40
2018-03-08T01:45:13.662Z,52.22
2018-03-08T01:47:41.647Z,52.26
2018-03-08T01:50:09.444Z,52.18
2018-03-08T01:52:37.352Z,52.47
2018-03-08T01:55:05.281Z,52.54
2018-03-08T01:57:33.217Z,52.58
2018-03-08T02:00:01.176Z,55.05
2018-03-08T02:02:29.149Z,57.31
2018-03-08T02:04:57.474Z,58.17
2018-03-08T02:07:25.378Z,57.69
2018-03-08T02:09:53.286Z,56.45
2018-03-08T02:12:21.238Z,54.29
2018-03-08T02:14:49.218Z,53.51
2018-03-08T02:17:17.297Z,52.37
2018-03-08T02:19:45.253Z,52.00
2018-03-08T02:22:13.253Z,54.15
2018-03-08T02:24:41.116Z,55.60
2018-03-08T02:27:09.076Z,54.73
2018-03-08T02:29:37.063Z,53.88
2018-03-08T02:32:04.987Z,52.55
2018-03-08T02:34:32.994Z,53.21
2018-03-08T02:37:00.988Z,53.25
2018-03-08T02:39:28.989Z,55.02
2018-03-08T02:41:56.916Z,54.14
2018-03-08T02:44:24.875Z,53.65
2018-03-08T02:46:52.825Z,54.33
2018-03-08T02:49:20.831Z,53.47
2018-03-08T02:51:48.761Z,53.20
2018-03-08T02:54:16.782Z,58.06
2018-03-08T02:56:44.701Z,57.00
2018-03-08T02:59:12.602Z,54.59
2018-03-08T03:01:40.558Z,55.54
2018-03-08T03:04:08.477Z,54.72
2018-03-08T03:06:36.713Z,54.98
2018-03-08T03:09:04.697Z,56.28
2018-03-08T03:11:32.549Z,58.10
2018-03-08T03:14:00.504Z,58.88
2018-03-08T03:16:28.430Z,56.52
2018-03-08T03:18:56.376Z,56.48
2018-03-08T03:21:24.430Z,57.67
2018-03-08T03:23:52.489Z,58.11
2018-03-08T03:26:20.491Z,57.87
2018-03-08T03:28:48.412Z,58.18
2018-03-08T03:31:16.342Z,57.96
2018-03-08T03:33:44.256Z,59.22
2018-03-08T03:36:12.142Z,57.91
2018-03-08T03:38:40.074Z,57.37
2018-03-08T03:41:07.973Z,56.66
2018-03-08T03:43:35.914Z,56.10
2018-03-08T03:46:03.896Z,57.23
2018-03-08T03:48:31.891Z,58.22
2018-03-08T03:50:59.809Z,58.24
2018-03-08T03:53:27.774Z,57.35
2018-03-08T03:55:55.719Z,57.21
2018-03-08T03:58:23.690Z,56.42
2018-03-08T04:00:51.651Z,58.94
2018-03-08T04:03:19.662Z,57.58
2018-03-08T04:05:47.613Z,57.03
2018-03-08T04:08:16.000Z,57.01
2018-03-08T04:10:43.952Z,56.92
2018-03-08T04:13:11.928Z,58.12
2018-03-08T04:15:39.853Z,59.86
2018-03-08T04:18:07.795Z,60.26
2018-03-08T04:20:35.767Z,59.03
2018-03-08T04:23:03.812Z,57.42
2018-03-08T04:25:31.671Z,57.57
2018-03-08T04:27:59.641Z,57.81
2018-03-08T04:30:27.634Z,57.02
2018-03-08T04:32:55.525Z,57.96
2018-03-08T04:35:23.510Z,57.89
2018-03-08T04:37:51.433Z,59.58
2018-03-08T04:40:19.397Z,60.58
2018-03-08T04:42:47.362Z,63.33
2018-03-08T04:45:15.304Z,63.19
2018-03-08T04:47:43.196Z,61.30
2018-03-08T04:50:11.294Z,61.85
2018-03-08T04:52:39.220Z,61.88
2018-03-08T04:55:07.157Z,60.91
2018-03-08T04:57:35.118Z,58.49
2018-03-08T05:00:03.120Z,58.07
2018-03-08T05:02:31.110Z,58.65
2018-03-08T05:04:59.055Z,60.18
2018-03-08T05:07:26.944Z,61.42
2018-03-08T05:09:55.114Z,59.30
2018-03-08T05:12:23.045Z,59.20
2018-03-08T05:14:51.013Z,59.56
2018-03-08T05:17:18.986Z,59.42
2018-03-08T05:19:46.931Z,58.07
2018-03-08T05:22:14.841Z,57.32
2018-03-08T05:24:42.855Z,57.81
2018-03-08T05:27:10.853Z,56.96
2018-03-08T05:29:38.766Z,56.38
2018-03-08T05:32:06.775Z,55.11
2018-03-08T05:34:34.656Z,55.22
2018-03-08T05:37:02.642Z,55.70
2018-03-08T05:39:30.612Z,56.53
2018-03-08T05:41:58.544Z,56.67
2018-03-08T05:44:26.458Z,56.25
2018-03-08T05:46:54.330Z,55.79
2018-03-08T05:49:22.294Z,55.41
2018-03-08T05:51:50.350Z,55.38
2018-03-08T05:54:18.184Z,55.08
2018-03-08T05:56:46.085Z,55.29
2018-03-08T05:59:14.065Z,55.47
2018-03-08T06:01:41.999Z,54.63
2018-03-08T06:04:09.894Z,54.22
2018-03-08T06:06:37.857Z,55.35
2018-03-08T06:09:05.788Z,55.44
2018-03-08T06:11:34.211Z,55.53
2018-03-08T06:14:02.133Z,55.21
2018-03-08T06:16:30.105Z,55.18
2018-03-08T06:18:57.988Z,55.70
2018-03-08T06:21:25.935Z,54.95
2018-03-08T06:23:53.897Z,54.45
2018-03-08T06:26:21.890Z,67.33
2018-03-08T06:28:50.498Z,64.33
2018-03-08T06:31:18.879Z,57.76
2018-03-08T06:33:46.848Z,58.79
2018-03-08T06:36:14.745Z,60.69
2018-03-08T06:38:42.667Z,61.54
2018-03-08T06:41:10.600Z,59.42
2018-03-08T06:43:38.631Z,59.43
2018-03-08T06:46:06.567Z,58.75
2018-03-08T06:48:34.585Z,59.19
2018-03-08T06:51:02.556Z,56.75
2018-03-08T06:53:30.502Z,58.28
2018-03-08T06:55:58.510Z,58.19
2018-03-08T06:58:26.468Z,57.76
2018-03-08T07:00:54.375Z,57.77
2018-03-08T07:03:22.304Z,58.38
2018-03-08T07:05:50.217Z,58.51
2018-03-08T07:08:18.199Z,61.59
2018-03-08T07:10:46.158Z,62.16
2018-03-08T07:13:14.246Z,61.99
2018-03-08T07:15:42.252Z,62.33
2018-03-08T07:18:10.204Z,61.79
2018-03-08T07:20:38.142Z,59.87
2018-03-08T07:23:06.103Z,60.07
2018-03-08T07:25:34.056Z,61.05
2018-03-08T07:28:02.058Z,62.02
2018-03-08T07:30:30.012Z,62.06
2018-03-08T07:32:57.974Z,61.25
2018-03-08T07:35:25.901Z,62.01
2018-03-08T07:37:53.824Z,61.36
2018-03-08T07:40:21.717Z,59.50
2018-03-08T07:42:49.621Z,58.52
2018-03-08T07:45:17.553Z,59.35
2018-03-08T07:47:45.562Z,60.21
2018-03-08T07:50:13.589Z,58.18
2018-03-08T07:52:41.664Z,56.93
2018-03-08T07:55:11.847Z,55.71
2018-03-08T07:57:39.854Z,55.45
2018-03-08T08:00:07.802Z,56.13
2018-03-08T08:02:35.674Z,54.14
2018-03-08T08:05:15.394Z,52.93
2018-03-08T08:07:55.200Z,53.04
2018-03-08T08:10:23.126Z,53.74
2018-03-08T08:12:51.123Z,53.99
2018-03-08T08:15:20.882Z,53.58
2018-03-08T08:17:49.376Z,52.11
2018-03-08T08:20:17.759Z,53.29
2018-03-08T08:22:46.045Z,52.77
2018-03-08T08:25:14.295Z,52.38
2018-03-08T08:27:42.647Z,52.52
2018-03-08T08:30:11.059Z,54.00
2018-03-08T08:32:39.446Z,53.50
2018-03-08T08:35:07.709Z,54.73
2018-03-08T08:37:36.197Z,50.98
2018-03-08T08:40:04.578Z,52.85
2018-03-08T08:42:33.058Z,55.11
2018-03-08T08:45:01.317Z,54.17
2018-03-08T08:47:29.711Z,53.20
2018-03-08T08:49:57.889Z,53.21
2018-03-08T08:52:26.261Z,52.00
2018-03-08T08:54:54.547Z,55.63
2018-03-08T08:57:23.023Z,52.86
2018-03-08T08:59:51.562Z,51.92
2018-03-08T09:02:20.006Z,53.81
2018-03-08T09:04:48.471Z,52.77
2018-03-08T09:07:17.128Z,53.91
2018-03-08T09:09:45.421Z,53.59
2018-03-08T09:12:13.797Z,53.05
2018-03-08T09:14:42.070Z,50.38
2018-03-08T09:17:11.602Z,51.05
2018-03-08T09:19:39.949Z,54.92
2018-03-08T09:22:08.229Z,52.82
2018-03-08T09:24:36.613Z,53.04
2018-03-08T09:27:05.189Z,51.75
2018-03-08T09:29:33.657Z,52.48
2018-03-08T09:32:01.945Z,52.25
2018-03-08T09:34:30.738Z,49.48
2018-03-08T09:36:59.095Z,51.44
2018-03-08T09:39:28.534Z,51.57
2018-03-08T09:41:56.994Z,51.05
2018-03-08T09:44:25.469Z,48.55
2018-03-08T09:46:53.911Z,47.99
2018-03-08T09:49:22.278Z,47.84
2018-03-08T09:51:50.567Z,47.37
2018-03-08T09:54:18.828Z,49.02
2018-03-08T09:56:47.166Z,48.51
2018-03-08T09:59:15.158Z,48.55
2018-03-08T10:01:43.613Z,48.73
2018-03-08T10:04:11.515Z,49.46
2018-03-08T10:06:39.462Z,49.00
2018-03-08T10:09:07.453Z,49.48
2018-03-08T10:11:35.417Z,50.14
2018-03-08T10:14:03.304Z,51.22
2018-03-08T10:16:31.250Z,49.08
2018-03-08T10:18:59.898Z,47.74
2018-03-08T10:21:44.407Z,47.09
2018-03-08T10:23:56.144Z,44.57
2018-03-08T10:26:24.072Z,46.47
2018-03-08T10:28:52.037Z,45.73
2018-03-08T10:31:19.993Z,46.09
2018-03-08T10:33:47.972Z,44.75
2018-03-08T10:36:15.963Z,45.19
2018-03-08T10:38:43.920Z,44.79
2018-03-08T10:41:11.898Z,43.66
2018-03-08T10:43:39.846Z,44.21
2018-03-08T10:46:07.851Z,42.94
2018-03-08T10:48:35.790Z,43.70
2018-03-08T10:51:03.692Z,42.01
2018-03-08T10:53:31.654Z,44.14
2018-03-08T10:55:59.620Z,42.13
2018-03-08T10:58:27.606Z,42.31
2018-03-08T11:00:55.564Z,42.94
2018-03-08T11:03:29.084Z,43.20
2018-03-08T11:05:57.052Z,40.54
2018-03-08T11:08:25.112Z,39.42
2018-03-08T11:10:53.070Z,38.71
2018-03-08T11:13:21.084Z,42.50
2018-03-08T11:15:49.072Z,43.10
2018-03-08T11:18:16.969Z,42.68
2018-03-08T11:20:45.165Z,42.50
2018-03-08T11:23:13.161Z,43.53
2018-03-08T11:25:41.116Z,43.25
2018-03-08T11:28:09.075Z,43.21
2018-03-08T11:30:37.112Z,44.06
2018-03-08T11:33:05.070Z,44.22
2018-03-08T11:35:33.078Z,45.95
2018-03-08T11:38:00.997Z,45.84
2018-03-08T11:40:28.962Z,46.44
2018-03-08T11:42:56.842Z,48.25
2018-03-08T11:45:24.829Z,49.36
2018-03-08T11:47:52.782Z,49.03
2018-03-08T11:50:21.852Z,48.49
2018-03-08T11:52:48.780Z,48.66
2018-03-08T11:55:16.725Z,49.06
2018-03-08T11:57:44.668Z,51.19
2018-03-08T12:00:12.647Z,54.69
2018-03-08T12:02:40.678Z,53.75
2018-03-08T12:05:08.581Z,50.51
2018-03-08T12:07:36.484Z,50.43
2018-03-08T12:10:04.472Z,50.24
2018-03-08T12:12:32.404Z,51.73
2018-03-08T12:15:00.334Z,49.73
2018-03-08T12:17:28.250Z,49.38
2018-03-08T12:19:56.375Z,49.72
2018-03-08T12:22:24.861Z,53.57
2018-03-08T12:24:52.721Z,49.62
2018-03-08T12:27:20.661Z,50.33
2018-03-08T12:29:48.604Z,48.08
2018-03-08T12:32:16.950Z,49.11
2018-03-08T12:34:45.526Z,50.41
2018-03-08T12:37:13.490Z,49.28
2018-03-08T12:39:41.419Z,54.16
2018-03-08T12:42:09.322Z,44.45
2018-03-08T12:44:37.315Z,47.26
2018-03-08T12:47:05.246Z,46.71
2018-03-08T12:49:33.136Z,44.98
2018-03-08T12:52:01.101Z,46.49
2018-03-08T12:54:29.006Z,44.53
2018-03-08T12:56:56.913Z,44.18
2018-03-08T12:59:24.994Z,42.46
2018-03-08T13:01:52.885Z,42.72
2018-03-08T13:04:20.894Z,43.18
2018-03-08T13:06:48.842Z,40.76
2018-03-08T13:09:16.794Z,37.75
2018-03-08T13:11:44.790Z,37.57
2018-03-08T13:14:12.769Z,39.96
2018-03-08T13:16:40.720Z,39.09
2018-03-08T13:19:08.720Z,40.64
2018-03-08T13:21:36.637Z,40.12
2018-03-08T13:24:04.996Z,38.77
2018-03-08T13:26:33.068Z,36.87
2018-03-08T13:29:00.985Z,37.08
2018-03-08T13:31:28.931Z,35.78
2018-03-08T13:33:56.862Z,39.47
2018-03-08T13:36:24.751Z,37.91
2018-03-08T13:38:52.723Z,39.66
2018-03-08T13:41:20.665Z,39.39
2018-03-08T13:43:48.547Z,37.79
2018-03-08T13:46:16.514Z,36.70
2018-03-08T13:48:44.460Z,36.15
2018-03-08T13:51:12.402Z,36.37
2018-03-08T13:53:40.309Z,35.61
2018-03-08T13:56:08.186Z,35.78
2018-03-08T13:58:36.087Z,35.44
2018-03-08T14:01:04.099Z,37.79
2018-03-08T14:03:32.054Z,39.52
2018-03-08T14:06:00.038Z,36.65
2018-03-08T14:08:27.888Z,36.59
2018-03-08T14:10:55.843Z,38.10
2018-03-08T14:13:23.790Z,36.88
2018-03-08T14:15:51.916Z,38.36
2018-03-08T14:18:19.806Z,39.45
2018-03-08T14:20:47.773Z,41.28
2018-03-08T14:23:15.757Z,43.56
2018-03-08T14:25:44.222Z,42.08
2018-03-08T14:28:12.195Z,40.80
2018-03-08T14:30:40.084Z,43.00
2018-03-08T14:33:08.059Z,43.67
2018-03-08T14:35:35.997Z,39.84
2018-03-08T14:38:03.978Z,38.12
2018-03-08T14:40:31.940Z,37.67
2018-03-08T14:42:59.974Z,37.51
2018-03-08T14:45:27.873Z,39.30
2018-03-08T14:47:55.832Z,39.28
2018-03-08T14:50:23.794Z,39.75
2018-03-08T14:52:51.629Z,40.31
2018-03-08T14:55:19.516Z,39.49
2018-03-08T14:57:47.507Z,40.81
2018-03-08T15:00:15.472Z,42.64
2018-03-08T15:02:43.424Z,41.69
2018-03-08T15:05:11.377Z,43.95
2018-03-08T15:07:39.278Z,42.93
2018-03-08T15:10:07.269Z,43.64
2018-03-08T15:12:35.249Z,43.93
2018-03-08T15:15:03.221Z,42.93
2018-03-08T15:17:31.205Z,42.60
2018-03-08T15:20:00.228Z,41.75
2018-03-08T15:22:28.179Z,41.77
2018-03-08T15:24:56.138Z,41.65
2018-03-08T15:27:24.852Z,42.64
2018-03-08T15:29:52.802Z,43.95
2018-03-08T15:32:20.683Z,41.60
2018-03-08T15:34:48.585Z,42.33
2018-03-08T15:37:16.477Z,42.27
2018-03-08T15:39:44.353Z,41.32
2018-03-08T15:42:12.330Z,44.53
2018-03-08T15:44:40.297Z,41.70
2018-03-08T15:47:08.212Z,42.80
2018-03-08T15:49:36.117Z,42.23
2018-03-08T15:52:04.056Z,42.27
2018-03-08T15:54:32.504Z,43.02
2018-03-08T15:57:00.671Z,43.40
2018-03-08T15:59:29.059Z,42.67
2018-03-08T16:01:57.419Z,42.50
2018-03-08T16:04:25.723Z,42.48
2018-03-08T16:10:31.448Z,46.46
2018-03-08T16:12:59.858Z,47.91
2018-03-08T16:15:28.546Z,48.34
2018-03-08T16:17:57.216Z,44.27
2018-03-08T16:20:25.514Z,43.49
2018-03-08T16:22:53.732Z,44.29
2018-03-08T16:25:21.886Z,44.00
2018-03-08T16:27:50.843Z,43.91
2018-03-08T16:30:19.024Z,45.61
2018-03-08T16:32:47.396Z,45.07
2018-03-08T16:35:15.586Z,45.78
2018-03-08T16:37:44.262Z,45.96
2018-03-08T16:40:12.616Z,44.92
2018-03-08T16:42:40.561Z,44.06
2018-03-08T16:45:08.453Z,45.24
2018-03-08T16:47:36.366Z,44.89
2018-03-08T16:50:04.353Z,44.91
2018-03-08T16:52:32.333Z,45.70
2018-03-08T16:55:00.281Z,46.02
2018-03-08T16:57:28.321Z,46.14
2018-03-08T16:59:56.241Z,46.21
2018-03-08T17:02:24.178Z,46.55
2018-03-08T17:04:52.150Z,46.37
2018-03-08T17:07:20.050Z,51.18
2018-03-08T17:09:47.999Z,49.27
2018-03-08T17:12:15.974Z,49.34
2018-03-08T17:14:44.118Z,47.62
2018-03-08T17:17:12.321Z,47.42
2018-03-08T17:19:40.307Z,47.19
2018-03-08T17:22:08.258Z,47.48
2018-03-08T17:24:36.219Z,50.22
2018-03-08T17:27:04.188Z,50.15
2018-03-08T17:29:32.414Z,48.61
2018-03-08T17:32:00.330Z,50.37
2018-03-08T17:34:28.273Z,49.49
2018-03-08T17:36:56.228Z,50.56
2018-03-08T17:39:24.117Z,50.13
2018-03-08T17:41:52.102Z,51.49
2018-03-08T17:44:20.061Z,52.08
2018-03-08T17:46:48.017Z,51.04
2018-03-08T17:49:16.008Z,51.33
2018-03-08T17:51:43.945Z,50.66
2018-03-08T17:54:11.809Z,50.83
2018-03-08T17:56:39.745Z,50.82
2018-03-08T17:59:07.709Z,51.84
2018-03-08T18:01:35.687Z,54.40
2018-03-08T18:04:03.610Z,54.06
2018-03-08T18:06:31.593Z,59.49
2018-03-08T18:08:59.484Z,53.82
2018-03-08T18:11:27.763Z,54.24
2018-03-08T18:13:56.157Z,56.08
2018-03-08T18:16:24.371Z,56.64
2018-03-08T18:18:52.803Z,55.12
2018-03-08T18:21:21.599Z,54.38
2018-03-08T18:23:49.635Z,52.67
2018-03-08T18:26:17.554Z,52.37
2018-03-08T18:28:45.492Z,51.89
2018-03-08T18:31:13.763Z,52.03
2018-03-08T18:33:41.698Z,52.42
2018-03-08T18:36:09.702Z,55.67
2018-03-08T18:38:37.600Z,51.69
2018-03-08T18:41:05.509Z,51.49
2018-03-08T18:43:33.558Z,53.00
2018-03-08T18:46:01.465Z,54.13
2018-03-08T18:48:29.382Z,54.17
2018-03-08T18:50:57.347Z,54.81
2018-03-08T18:53:25.295Z,55.34
2018-03-08T18:55:53.242Z,55.25
2018-03-08T18:58:26.302Z,54.28
2018-03-08T19:00:54.292Z,53.30
2018-03-08T19:03:22.361Z,54.96
2018-03-08T19:05:50.273Z,52.75
2018-03-08T19:08:18.381Z,52.18
2018-03-08T19:10:46.386Z,52.91
2018-03-08T19:13:14.324Z,52.45
2018-03-08T19:15:42.281Z,52.21
2018-03-08T19:18:10.216Z,52.12
2018-03-08T19:20:38.098Z,51.80
2018-03-08T19:23:06.067Z,51.22
2018-03-08T19:25:33.985Z,50.35
2018-03-08T19:28:01.905Z,51.26
2018-03-08T19:30:29.864Z,52.01
2018-03-08T19:32:58.100Z,51.98
2018-03-08T19:35:26.033Z,52.04
2018-03-08T19:37:53.995Z,51.62
2018-03-08T19:40:21.897Z,53.33
2018-03-08T19:42:49.809Z,51.90
2018-03-08T19:45:17.765Z,52.06
2018-03-08T19:47:45.686Z,55.06
2018-03-08T19:50:13.635Z,54.49
2018-03-08T19:52:41.469Z,55.75
2018-03-08T19:55:09.511Z,54.82
2018-03-08T19:57:37.423Z,55.15
2018-03-08T20:00:05.408Z,56.15
2018-03-08T20:02:33.353Z,55.76
2018-03-08T20:05:01.278Z,54.65
2018-03-08T20:07:29.237Z,54.69
2018-03-08T20:09:57.239Z,56.57
2018-03-08T20:12:25.184Z,55.37
2018-03-08T20:14:53.134Z,53.63
2018-03-08T20:17:21.125Z,55.61
2018-03-08T20:19:49.055Z,55.81
2018-03-08T20:22:16.961Z,55.42
2018-03-08T20:24:44.968Z,55.48
2018-03-08T20:27:12.958Z,55.48
2018-03-08T20:29:41.051Z,55.71
2018-03-08T20:32:09.022Z,54.48
2018-03-08T20:34:37.406Z,54.37
2018-03-08T20:37:05.449Z,55.10
2018-03-08T20:39:33.367Z,54.67
2018-03-08T20:42:01.361Z,55.55
2018-03-08T20:44:29.333Z,54.20
2018-03-08T20:46:57.229Z,53.09
2018-03-08T20:49:25.170Z,51.66
2018-03-08T20:51:53.135Z,53.63
2018-03-08T20:54:21.182Z,51.81
2018-03-08T20:56:49.093Z,50.80
2018-03-08T20:59:17.118Z,50.79
2018-03-08T21:01:45.093Z,52.89
2018-03-08T21:04:13.095Z,53.09
2018-03-08T21:06:41.040Z,51.13
2018-03-08T21:09:09.076Z,50.38
2018-03-08T21:11:36.990Z,49.97
2018-03-08T21:14:04.934Z,49.90
2018-03-08T21:16:32.821Z,51.68
2018-03-08T21:19:00.818Z,54.17
2018-03-08T21:21:28.743Z,53.55
2018-03-08T21:23:56.706Z,52.93
2018-03-08T21:26:24.613Z,52.24
2018-03-08T21:28:52.653Z,51.78
2018-03-08T21:31:20.613Z,52.54
2018-03-08T21:33:48.516Z,51.63
2018-03-08T21:36:16.877Z,50.49
2018-03-08T21:38:44.800Z,49.03
2018-03-08T21:41:12.729Z,51.24
2018-03-08T21:43:40.660Z,54.36
2018-03-08T21:46:08.545Z,51.54
2018-03-08T21:48:36.528Z,49.80
2018-03-08T21:51:04.478Z,49.14
2018-03-08T21:53:32.426Z,51.58
2018-03-08T21:56:00.393Z,49.95
2018-03-08T21:58:28.334Z,49.68
2018-03-08T22:00:56.262Z,49.93
2018-03-08T22:03:24.200Z,48.97
2018-03-08T22:05:52.110Z,48.89
2018-03-08T22:08:20.070Z,48.51
2018-03-08T22:10:47.996Z,49.29
2018-03-08T22:13:15.898Z,48.87
2018-03-08T22:15:43.897Z,48.58
2018-03-08T22:18:11.812Z,47.66
2018-03-08T22:20:39.770Z,48.96
2018-03-08T22:23:07.843Z,49.52
2018-03-08T22:25:35.804Z,48.07
2018-03-08T22:28:03.736Z,47.88
2018-03-08T22:30:31.695Z,48.94
2018-03-08T22:32:59.688Z,49.55
2018-03-08T22:35:27.609Z,52.47
2018-03-08T22:37:55.991Z,55.44
2018-03-08T22:40:23.886Z,52.19
2018-03-08T22:42:51.891Z,51.53
2018-03-08T22:45:19.813Z,51.82
2018-03-08T22:47:47.775Z,53.99
2018-03-08T22:50:15.692Z,59.13
2018-03-08T22:52:43.606Z,52.98
2018-03-08T22:55:11.584Z,52.34
2018-03-08T22:57:39.528Z,55.11
2018-03-08T23:00:07.548Z,54.44
2018-03-08T23:02:35.501Z,51.26
2018-03-08T23:05:03.453Z,52.47
2018-03-08T23:07:31.360Z,51.16
2018-03-08T23:09:59.252Z,51.77
2018-03-08T23:12:27.242Z,49.63
2018-03-08T23:14:55.176Z,53.36
2018-03-08T23:17:23.073Z,52.29
2018-03-08T23:19:50.993Z,51.07
2018-03-08T23:22:18.908Z,56.53
2018-03-08T23:24:46.886Z,49.88
2018-03-08T23:27:14.864Z,49.65
2018-03-08T23:29:42.860Z,49.80
2018-03-08T23:32:10.811Z,52.57
2018-03-08T23:34:38.720Z,50.50
2018-03-08T23:37:06.730Z,50.94
2018-03-08T23:39:34.942Z,50.78
2018-03-08T23:42:02.961Z,56.39
2018-03-08T23:44:30.917Z,55.92
2018-03-08T23:46:58.849Z,57.69
2018-03-08T23:49:26.753Z,55.43
2018-03-08T23:51:54.724Z,54.17
2018-03-08T23:54:22.684Z,55.39
2018-03-08T23:56:50.646Z,66.46
2018-03-08T23:59:18.609Z,61.15
